Time,TemperatureF,DewpointF,PressureIn,WindDirection,WindDirectionDegrees,WindSpeedMPH,WindSpeedGustMPH,Humidity,HourlyPrecipIn,Conditions,Clouds,dailyrainin,SolarRadiationWatts/m^2,SoftwareType,DateUTC
2013-09-20 00:01:00,55.7,-99.9,29.92,NW,315,6.0,10.5,92,0.00,,,0.00,0,,2013-09-20 05:01:00,
2013-09-20 00:11:00,55.3,-99.9,29.93,West,272,6.0,8.8,91,0.00,,,0.00,0,,2013-09-20 05:11:00,
2013-09-20 00:21:00,55.1,-99.9,29.93,West,276,7.0,12.1,90,0.00,,,0.00,0,,2013-09-20 05:21:00,
2013-09-20 00:31:00,55.0,-99.9,29.93,NW,314,5.0,10.5,90,0.00,,,0.00,0,,2013-09-20 05:31:00,
2013-09-20 00:41:00,55.0,-99.9,29.93,West,271,5.0,10.5,90,0.00,,,0.00,0,,2013-09-20 05:41:00,
2013-09-20 00:51:00,54.7,-99.9,29.93,West,278,8.0,12.1,91,0.00,,,0.00,0,,2013-09-20 05:51:00,
2013-09-20 01:01:00,54.2,-99.9,29.93,WNW,286,9.0,15.5,90,0.00,,,0.00,0,,2013-09-20 06:01:00,
2013-09-20 01:11:00,53.8,-99.9,29.93,West,269,9.0,13.8,90,0.00,,,0.00,0,,2013-09-20 06:11:00,
2013-09-20 01:21:00,53.5,-99.9,29.93,WNW,303,11.0,17.2,90,0.00,,,0.00,0,,2013-09-20 06:21:00,
2013-09-20 01:31:00,53.3,-99.9,29.94,WNW,302,12.0,17.2,90,0.00,,,0.00,0,,2013-09-20 06:31:00,
2013-09-20 01:41:00,53.0,-99.9,29.94,WSW,258,9.0,17.2,92,0.00,,,0.00,0,,2013-09-20 06:41:00,
2013-09-20 01:51:00,52.1,-99.9,29.94,NW,324,8.0,10.5,93,0.00,,,0.00,0,,2013-09-20 06:51:00,
2013-09-20 02:01:00,51.7,-99.9,29.94,WNW,285,10.0,15.5,94,0.00,,,0.00,0,,2013-09-20 07:01:00,
2013-09-20 02:11:00,52.0,-99.9,29.95,WNW,291,9.0,18.9,92,0.00,,,0.00,0,,2013-09-20 07:11:00,
2013-09-20 02:31:00,51.8,-99.9,29.95,WNW,292,8.0,10.5,90,0.00,,,0.00,0,,2013-09-20 07:31:00,
2013-09-20 02:41:00,51.2,-99.9,29.95,West,280,11.0,17.2,91,0.00,,,0.00,0,,2013-09-20 07:41:00,
2013-09-20 02:51:00,51.5,-99.9,29.95,West,275,6.0,8.8,89,0.00,,,0.00,0,,2013-09-20 07:51:00,
2013-09-20 03:01:00,51.6,-99.9,29.95,NW,308,6.0,8.8,88,0.00,,,0.00,0,,2013-09-20 08:01:00,
2013-09-20 03:11:00,51.4,-99.9,29.94,WNW,291,6.0,13.8,88,0.00,,,0.00,0,,2013-09-20 08:11:00,
2013-09-20 03:21:00,51.3,-99.9,29.94,WNW,298,6.0,10.5,87,0.00,,,0.00,0,,2013-09-20 08:21:00,
2013-09-20 03:31:00,51.3,-99.9,29.95,WNW,284,6.0,10.5,87,0.00,,,0.00,0,,2013-09-20 08:31:00,
2013-09-20 03:41:00,51.2,-99.9,29.95,NW,325,4.0,7.1,86,0.00,,,0.00,0,,2013-09-20 08:41:00,
2013-09-20 03:51:00,51.1,-99.9,29.95,West,279,6.0,10.5,86,0.00,,,0.00,0,,2013-09-20 08:51:00,
2013-09-20 04:01:00,50.9,-99.9,29.95,WNW,291,8.0,13.8,86,0.00,,,0.00,0,,2013-09-20 09:01:00,
2013-09-20 04:11:00,50.6,-99.9,29.94,West,273,6.0,8.8,87,0.00,,,0.00,0,,2013-09-20 09:11:00,
2013-09-20 04:21:00,50.5,-99.9,29.94,NW,310,5.0,8.8,88,0.00,,,0.00,0,,2013-09-20 09:21:00,
2013-09-20 04:31:00,50.5,-99.9,29.94,WNW,287,6.0,10.5,86,0.00,,,0.00,0,,2013-09-20 09:31:00,
2013-09-20 04:41:00,50.6,-99.9,29.94,WNW,289,7.0,10.5,85,0.00,,,0.00,0,,2013-09-20 09:41:00,
2013-09-20 04:51:00,50.6,-99.9,29.95,WNW,293,10.0,13.8,84,0.00,,,0.00,0,,2013-09-20 09:51:00,
2013-09-20 05:01:00,50.4,-99.9,29.95,WNW,287,8.0,10.5,84,0.00,,,0.00,0,,2013-09-20 10:01:00,
2013-09-20 05:11:00,50.5,-99.9,29.95,WNW,297,5.0,7.1,84,0.00,,,0.00,0,,2013-09-20 10:11:00,
2013-09-20 05:21:00,50.5,-99.9,29.95,West,281,10.0,13.8,84,0.00,,,0.00,0,,2013-09-20 10:21:00,
2013-09-20 05:31:00,50.4,-99.9,29.95,West,270,6.0,8.8,84,0.00,,,0.00,0,,2013-09-20 10:31:00,
2013-09-20 05:41:00,50.2,-99.9,29.95,WNW,292,9.0,12.1,85,0.00,,,0.00,0,,2013-09-20 10:41:00,
2013-09-20 05:51:00,50.2,-99.9,29.95,WNW,288,12.0,17.2,84,0.00,,,0.00,0,,2013-09-20 10:51:00,
2013-09-20 06:01:00,50.2,-99.9,29.95,WNW,293,11.0,15.5,84,0.00,,,0.00,0,,2013-09-20 11:01:00,
2013-09-20 06:11:00,50.1,-99.9,29.95,WNW,289,9.0,15.5,84,0.00,,,0.00,0,,2013-09-20 11:11:00,
2013-09-20 06:21:00,50.2,-99.9,29.95,West,270,7.0,12.1,85,0.00,,,0.00,0,,2013-09-20 11:21:00,
2013-09-20 06:31:00,50.1,-99.9,29.95,WNW,298,9.0,12.1,85,0.00,,,0.00,0,,2013-09-20 11:31:00,
2013-09-20 06:41:00,50.1,-99.9,29.96,West,272,7.0,10.5,85,0.00,,,0.00,0,,2013-09-20 11:41:00,
2013-09-20 06:51:00,50.1,-99.9,29.96,WNW,288,7.0,10.5,84,0.00,,,0.00,0,,2013-09-20 11:51:00,
2013-09-20 07:01:00,50.1,-99.9,29.96,WNW,284,7.0,8.8,85,0.00,,,0.00,0.108,,2013-09-20 12:01:00,
2013-09-20 07:11:00,50.1,-99.9,29.97,West,273,7.0,10.5,85,0.00,,,0.00,0.609,,2013-09-20 12:11:00,
2013-09-20 07:21:00,50.1,-99.9,29.96,NW,324,5.0,8.8,85,0.00,,,0.00,1.625,,2013-09-20 12:21:00,
2013-09-20 07:31:00,50.2,-99.9,29.97,West,275,6.0,8.8,85,0.00,,,0.00,2.82,,2013-09-20 12:31:00,
2013-09-20 07:41:00,50.3,-99.9,29.97,WNW,287,6.0,8.8,84,0.00,,,0.00,4.402,,2013-09-20 12:41:00,
2013-09-20 07:51:00,50.4,-99.9,29.97,WNW,284,8.0,12.1,84,0.00,,,0.00,8.89,,2013-09-20 12:51:00,
2013-09-20 08:01:00,50.4,-99.9,29.97,NW,306,9.0,12.1,84,0.00,,,0.00,17.54,,2013-09-20 13:01:00,
2013-09-20 08:11:00,50.5,-99.9,29.97,WNW,286,7.0,8.8,83,0.00,,,0.00,24.83,,2013-09-20 13:11:00,
2013-09-20 08:21:00,50.6,-99.9,29.98,WNW,294,6.0,10.5,83,0.00,,,0.00,29.89,,2013-09-20 13:21:00,
2013-09-20 08:31:00,50.8,-99.9,29.98,WNW,283,8.0,12.1,82,0.00,,,0.00,45.23,,2013-09-20 13:31:00,
2013-09-20 08:41:00,51.0,-99.9,29.98,WNW,296,10.0,13.8,81,0.00,,,0.00,71.79,,2013-09-20 13:41:00,
2013-09-20 08:51:00,51.1,-99.9,29.97,WNW,297,7.0,10.5,81,0.00,,,0.00,84.4,,2013-09-20 13:51:00,
2013-09-20 09:01:00,51.2,-99.9,29.98,WNW,296,9.0,15.5,79,0.00,,,0.00,85.1,,2013-09-20 14:01:00,
2013-09-20 09:11:00,51.2,-99.9,29.98,NW,306,9.0,13.8,79,0.00,,,0.00,103.2,,2013-09-20 14:11:00,
2013-09-20 09:21:00,51.3,-99.9,29.98,WNW,293,9.0,12.1,78,0.00,,,0.00,117.1,,2013-09-20 14:21:00,
2013-09-20 09:31:00,51.5,-99.9,29.98,West,278,11.0,17.2,77,0.00,,,0.00,124.7,,2013-09-20 14:31:00,
2013-09-20 09:41:00,51.3,-99.9,29.98,WNW,286,10.0,13.8,78,0.00,,,0.00,128.2,,2013-09-20 14:41:00,
2013-09-20 09:51:00,51.8,-99.9,29.98,North,351,6.0,10.5,78,0.00,,,0.00,162.7,,2013-09-20 14:51:00,
2013-09-20 10:01:00,51.5,-99.9,29.99,West,280,7.0,12.1,78,0.00,,,0.00,218.8,,2013-09-20 15:01:00,
2013-09-20 10:11:00,51.9,-99.9,29.99,West,279,8.0,12.1,77,0.00,,,0.00,143.3,,2013-09-20 15:11:00,
2013-09-20 10:21:00,51.8,-99.9,29.99,West,260,8.0,10.5,77,0.00,,,0.00,229.7,,2013-09-20 15:21:00,
2013-09-20 10:31:00,52.8,-99.9,29.99,NNW,335,11.0,17.2,74,0.00,,,0.00,292.3,,2013-09-20 15:31:00,
2013-09-20 10:41:00,52.4,-99.9,29.99,West,273,7.0,12.1,75,0.00,,,0.00,227.6,,2013-09-20 15:41:00,
2013-09-20 10:51:00,52.8,-99.9,29.99,NW,312,8.0,10.5,73,0.00,,,0.00,626.7,,2013-09-20 15:51:00,
2013-09-20 11:01:00,55.3,-99.9,29.99,NW,321,7.0,12.1,67,0.00,,,0.00,618.2,,2013-09-20 16:01:00,
2013-09-20 11:11:00,56.1,-99.9,29.99,WNW,292,9.0,15.5,64,0.00,,,0.00,643.1,,2013-09-20 16:11:00,
2013-09-20 11:21:00,56.2,-99.9,29.99,NNW,332,6.0,10.5,64,0.00,,,0.00,680.3,,2013-09-20 16:21:00,
2013-09-20 11:31:00,56.7,-99.9,29.99,West,267,9.0,15.5,59,0.00,,,0.00,666.2,,2013-09-20 16:31:00,
2013-09-20 11:41:00,57.4,-99.9,29.99,NNW,335,9.0,15.5,57,0.00,,,0.00,462.1,,2013-09-20 16:41:00,
2013-09-20 11:51:00,57.2,-99.9,29.99,NW,316,10.0,18.9,55,0.00,,,0.00,697,,2013-09-20 16:51:00,
2013-09-20 12:01:00,57.7,-99.9,29.98,NW,314,9.0,15.5,56,0.00,,,0.00,621.2,,2013-09-20 17:01:00,
2013-09-20 12:11:00,57.6,-99.9,29.98,NW,325,7.0,10.5,57,0.00,,,0.00,439,,2013-09-20 17:11:00,
2013-09-20 12:21:00,56.5,-99.9,29.98,WNW,300,10.0,17.2,58,0.00,,,0.00,520.5,,2013-09-20 17:21:00,
2013-09-20 12:31:00,57.5,-99.9,29.98,WNW,284,9.0,17.2,55,0.00,,,0.00,818,,2013-09-20 17:31:00,
2013-09-20 12:41:00,57.2,-99.9,29.98,WNW,290,12.0,17.2,57,0.00,,,0.00,301.6,,2013-09-20 17:41:00,
2013-09-20 12:51:00,56.3,-99.9,29.98,WNW,288,12.0,17.2,55,0.00,,,0.00,389.1,,2013-09-20 17:51:00,
2013-09-20 13:01:00,57.1,-99.9,29.98,West,272,9.0,12.1,55,0.00,,,0.00,148.5,,2013-09-20 18:01:00,
2013-09-20 13:11:00,56.4,-99.9,29.98,WSW,254,8.0,12.1,56,0.00,,,0.00,746.3,,2013-09-20 18:11:00,
2013-09-20 13:21:00,56.8,-99.9,29.98,NW,312,10.0,15.5,54,0.00,,,0.00,705,,2013-09-20 18:21:00,
2013-09-20 13:31:00,57.6,-99.9,29.98,West,274,5.0,8.8,55,0.00,,,0.00,612.4,,2013-09-20 18:31:00,
2013-09-20 13:41:00,57.2,-99.9,29.98,NW,307,6.0,8.8,54,0.00,,,0.00,782.2,,2013-09-20 18:41:00,
2013-09-20 13:51:00,57.7,-99.9,29.98,WNW,291,12.0,18.9,52,0.00,,,0.00,810,,2013-09-20 18:51:00,
2013-09-20 14:01:00,58.4,-99.9,29.97,WNW,295,10.0,15.5,55,0.00,,,0.00,323.3,,2013-09-20 19:01:00,
2013-09-20 14:11:00,58.2,-99.9,29.97,NNW,337,7.0,13.8,54,0.00,,,0.00,371.3,,2013-09-20 19:11:00,
2013-09-20 14:21:00,57.8,-99.9,29.97,NNE,17,5.0,8.8,56,0.00,,,0.00,386.1,,2013-09-20 19:21:00,
2013-09-20 14:31:00,58.0,-99.9,29.97,North,350,8.0,13.8,56,0.00,,,0.00,271.8,,2013-09-20 19:31:00,
2013-09-20 14:41:00,57.9,-99.9,29.97,NNE,24,8.0,13.8,56,0.00,,,0.00,303.7,,2013-09-20 19:41:00,
2013-09-20 14:51:00,58.5,-99.9,29.97,NNW,342,7.0,10.5,52,0.00,,,0.00,219,,2013-09-20 19:51:00,
2013-09-20 15:01:00,58.0,-99.9,29.97,NW,312,7.0,12.1,54,0.00,,,0.00,377.1,,2013-09-20 20:01:00,
2013-09-20 15:11:00,60.0,-99.9,29.97,West,265,11.0,17.2,48,0.00,,,0.00,727,,2013-09-20 20:11:00,
2013-09-20 15:21:00,59.1,-99.9,29.97,NNW,348,5.0,8.8,52,0.00,,,0.00,196.6,,2013-09-20 20:21:00,
2013-09-20 15:31:00,60.0,-99.9,29.96,WNW,290,8.0,13.8,50,0.00,,,0.00,606,,2013-09-20 20:31:00,
2013-09-20 15:41:00,59.7,-99.9,29.96,NW,306,9.0,13.8,49,0.00,,,0.00,651.3,,2013-09-20 20:41:00,
2013-09-20 15:51:00,60.3,-99.9,29.96,WNW,298,7.0,12.1,47,0.00,,,0.00,612.5,,2013-09-20 20:51:00,
2013-09-20 16:01:00,61.5,-99.9,29.96,NW,324,7.0,12.1,46,0.00,,,0.00,569,,2013-09-20 21:01:00,
2013-09-20 16:11:00,61.0,-99.9,29.96,WNW,283,9.0,13.8,46,0.00,,,0.00,509.2,,2013-09-20 21:11:00,
2013-09-20 16:21:00,60.8,-99.9,29.96,NW,320,6.0,8.8,50,0.00,,,0.00,164.3,,2013-09-20 21:21:00,
2013-09-20 16:31:00,60.8,-99.9,29.95,NW,315,6.0,12.1,49,0.00,,,0.00,435.5,,2013-09-20 21:31:00,
2013-09-20 16:41:00,59.9,-99.9,29.95,NNW,335,5.0,7.1,51,0.00,,,0.00,146.8,,2013-09-20 21:41:00,
2013-09-20 16:51:00,61.3,-99.9,29.95,NNE,21,7.0,10.5,49,0.00,,,0.00,354.7,,2013-09-20 21:51:00,
2013-09-20 17:01:00,60.8,-99.9,29.95,NNW,335,3.0,5.4,52,0.00,,,0.00,334.8,,2013-09-20 22:01:00,
2013-09-20 17:11:00,61.7,-99.9,29.95,WNW,282,7.0,10.5,47,0.00,,,0.00,410.3,,2013-09-20 22:11:00,
2013-09-20 17:21:00,61.6,-99.9,29.95,North,9,5.0,7.1,50,0.00,,,0.00,381.2,,2013-09-20 22:21:00,
2013-09-20 17:31:00,61.4,-99.9,29.95,NNW,344,5.0,10.5,50,0.00,,,0.00,224.9,,2013-09-20 22:31:00,
2013-09-20 17:41:00,61.5,-99.9,29.95,North,3,4.0,8.8,49,0.00,,,0.00,243.2,,2013-09-20 22:41:00,
2013-09-20 17:51:00,61.0,-99.9,29.95,North,0,6.0,8.8,50,0.00,,,0.00,142.7,,2013-09-20 22:51:00,
2013-09-20 18:01:00,61.0,-99.9,29.95,NE,34,6.0,8.8,50,0.00,,,0.00,151.1,,2013-09-20 23:01:00,
2013-09-20 18:11:00,60.5,-99.9,29.95,North,9,5.0,8.8,51,0.00,,,0.00,136.2,,2013-09-20 23:11:00,
2013-09-20 18:21:00,59.8,-99.9,29.95,NNE,21,2.0,5.4,55,0.00,,,0.00,106.9,,2013-09-20 23:21:00,
2013-09-20 18:31:00,59.7,-99.9,29.95,NNE,20,3.0,5.4,54,0.00,,,0.00,71.5,,2013-09-20 23:31:00,
2013-09-20 18:41:00,59.6,-99.9,29.95,North,351,4.0,7.1,55,0.00,,,0.00,46.87,,2013-09-20 23:41:00,
2013-09-20 18:51:00,58.4,-99.9,29.95,North,7,4.0,10.5,56,0.00,,,0.00,28.7,,2013-09-20 23:51:00,
2013-09-20 19:01:00,57.6,-99.9,29.96,North,0,3.0,5.4,58,0.00,,,0.00,18.33,,2013-09-21 00:01:00,
2013-09-20 19:11:00,56.9,-99.9,29.96,NNE,23,4.0,7.1,60,0.00,,,0.00,14.54,,2013-09-21 00:11:00,
2013-09-20 19:21:00,56.0,-99.9,29.96,North,351,3.0,5.4,63,0.00,,,0.00,10.28,,2013-09-21 00:21:00,
2013-09-20 19:31:00,55.0,-99.9,29.96,North,6,4.0,7.1,64,0.00,,,0.00,5.761,,2013-09-21 00:31:00,
2013-09-20 19:41:00,54.2,-99.9,29.96,North,5,0.0,0.0,67,0.00,,,0.00,2.44,,2013-09-21 00:41:00,
2013-09-20 19:51:00,53.0,-99.9,29.96,WNW,299,2.0,3.8,69,0.00,,,0.00,0.785,,2013-09-21 00:51:00,
2013-09-20 20:01:00,52.2,-99.9,29.96,NNW,334,1.0,3.8,71,0.00,,,0.00,0,,2013-09-21 01:01:00,
2013-09-20 20:11:00,51.5,-99.9,29.97,NNE,16,1.0,3.8,73,0.00,,,0.00,0,,2013-09-21 01:11:00,
2013-09-20 20:21:00,50.8,-99.9,29.97,NNE,15,0.0,2.1,74,0.00,,,0.00,0,,2013-09-21 01:21:00,
2013-09-20 20:31:00,50.4,-99.9,29.97,NE,38,0.0,3.8,75,0.00,,,0.00,0,,2013-09-21 01:31:00,
2013-09-20 20:41:00,49.7,-99.9,29.98,NNE,12,1.0,2.1,76,0.00,,,0.00,0,,2013-09-21 01:41:00,
2013-09-20 20:51:00,49.4,-99.9,29.98,North,349,1.0,3.8,77,0.00,,,0.00,0,,2013-09-21 01:51:00,
2013-09-20 21:01:00,49.3,-99.9,29.98,North,3,0.0,2.1,78,0.00,,,0.00,0,,2013-09-21 02:01:00,
2013-09-20 21:11:00,49.0,-99.9,29.98,NNE,28,0.0,0.0,79,0.00,,,0.00,0,,2013-09-21 02:11:00,
2013-09-20 21:21:00,49.0,-99.9,29.98,NE,38,0.0,0.0,81,0.00,,,0.00,0,,2013-09-21 02:21:00,
2013-09-20 21:31:00,48.2,-99.9,29.98,NNE,32,0.0,0.0,83,0.00,,,0.00,0,,2013-09-21 02:31:00,
2013-09-20 21:41:00,46.8,-99.9,29.98,SW,216,0.0,0.0,86,0.00,,,0.00,0,,2013-09-21 02:41:00,
2013-09-20 21:51:00,46.0,-99.9,29.98,ENE,76,0.0,0.0,89,0.00,,,0.00,0,,2013-09-21 02:51:00,
2013-09-20 22:01:00,45.5,-99.9,29.99,SSW,213,0.0,0.0,90,0.00,,,0.00,0,,2013-09-21 03:01:00,
2013-09-20 22:11:00,45.3,-99.9,29.99,WSW,252,0.0,0.0,91,0.00,,,0.00,0,,2013-09-21 03:11:00,
2013-09-20 22:21:00,45.6,-99.9,29.99,WSW,245,0.0,0.0,89,0.00,,,0.00,0,,2013-09-21 03:21:00,
2013-09-20 22:31:00,45.1,-99.9,29.99,NW,314,0.0,0.0,88,0.00,,,0.00,0,,2013-09-21 03:31:00,
2013-09-20 22:41:00,45.0,-99.9,29.99,SW,229,0.0,0.0,87,0.00,,,0.00,0,,2013-09-21 03:41:00,
2013-09-20 22:51:00,44.0,-99.9,29.99,SW,225,0.0,0.0,89,0.00,,,0.00,0,,2013-09-21 03:51:00,
2013-09-20 23:01:00,43.7,-99.9,29.99,SSW,209,0.0,0.0,93,0.00,,,0.00,0,,2013-09-21 04:01:00,
2013-09-20 23:11:00,43.5,-99.9,29.99,SW,236,1.0,2.1,94,0.00,,,0.00,0,,2013-09-21 04:11:00,
2013-09-20 23:21:00,43.3,-99.9,29.99,SW,231,0.0,0.0,93,0.00,,,0.00,0,,2013-09-21 04:21:00,
2013-09-20 23:31:00,43.0,-99.9,30.00,SW,225,1.0,2.1,93,0.00,,,0.00,0,,2013-09-21 04:31:00,
2013-09-20 23:41:00,42.4,-99.9,30.00,SW,220,0.0,0.0,93,0.00,,,0.00,0.007,,2013-09-21 04:41:00,
2013-09-20 23:51:00,42.1,-99.9,30.00,SSW,197,0.0,0.0,94,0.00,,,0.00,0,,2013-09-21 04:51:00,